sensor_id;sensor_type;location;lat;lon;timestamp;P1;durP1;ratioP1;P2;durP2;ratioP2
19907;SDS011;10116;53.112;7.356;2023-05-28T00:00:05;5.97;;;5.47;;
19907;SDS011;10116;53.112;7.356;2023-05-28T00:02:32;6.37;;;5.10;;
19907;SDS011;10116;53.112;7.356;2023-05-28T00:04:58;5.83;;;5.23;;
19907;SDS011;10116;53.112;7.356;2023-05-28T00:07:24;6.20;;;5.60;;
19907;SDS011;10116;53.112;7.356;2023-05-28T00:09:50;7.70;;;6.53;;
19907;SDS011;10116;53.112;7.356;2023-05-28T00:12:16;6.97;;;5.97;;
19907;SDS011;10116;53.112;7.356;2023-05-28T00:14:42;5.27;;;4.87;;
19907;SDS011;10116;53.112;7.356;2023-05-28T00:17:07;9.77;;;6.10;;
19907;SDS011;10116;53.112;7.356;2023-05-28T00:19:34;6.27;;;5.67;;
19907;SDS011;10116;53.112;7.356;2023-05-28T00:21:59;6.60;;;5.60;;
19907;SDS011;10116;53.112;7.356;2023-05-28T00:24:25;5.77;;;5.27;;
19907;SDS011;10116;53.112;7.356;2023-05-28T00:26:51;6.93;;;5.60;;
19907;SDS011;10116;53.112;7.356;2023-05-28T00:29:17;6.40;;;5.57;;
19907;SDS011;10116;53.112;7.356;2023-05-28T00:31:42;5.80;;;5.30;;
19907;SDS011;10116;53.112;7.356;2023-05-28T00:34:08;7.63;;;5.60;;
19907;SDS011;10116;53.112;7.356;2023-05-28T00:36:33;5.67;;;5.17;;
19907;SDS011;10116;53.112;7.356;2023-05-28T00:39:00;6.40;;;5.20;;
19907;SDS011;10116;53.112;7.356;2023-05-28T00:41:29;5.93;;;5.40;;
19907;SDS011;10116;53.112;7.356;2023-05-28T00:43:56;6.37;;;5.00;;
19907;SDS011;10116;53.112;7.356;2023-05-28T00:46:22;5.47;;;4.97;;
19907;SDS011;10116;53.112;7.356;2023-05-28T00:48:49;6.20;;;5.60;;
19907;SDS011;10116;53.112;7.356;2023-05-28T00:51:15;6.17;;;5.50;;
19907;SDS011;10116;53.112;7.356;2023-05-28T00:53:41;5.90;;;5.30;;
19907;SDS011;10116;53.112;7.356;2023-05-28T00:56:10;10.90;;;6.37;;
19907;SDS011;10116;53.112;7.356;2023-05-28T00:58:37;9.03;;;6.50;;
19907;SDS011;10116;53.112;7.356;2023-05-28T01:01:05;7.93;;;6.10;;
19907;SDS011;10116;53.112;7.356;2023-05-28T01:03:31;6.50;;;5.77;;
19907;SDS011;10116;53.112;7.356;2023-05-28T01:05:57;7.57;;;5.90;;
19907;SDS011;10116;53.112;7.356;2023-05-28T01:08:26;5.60;;;5.10;;
19907;SDS011;10116;53.112;7.356;2023-05-28T01:10:52;7.10;;;5.70;;
19907;SDS011;10116;53.112;7.356;2023-05-28T01:13:18;5.87;;;5.37;;
19907;SDS011;10116;53.112;7.356;2023-05-28T01:15:44;8.00;;;6.20;;
19907;SDS011;10116;53.112;7.356;2023-05-28T01:18:10;6.87;;;6.20;;
19907;SDS011;10116;53.112;7.356;2023-05-28T01:20:36;6.77;;;6.07;;
19907;SDS011;10116;53.112;7.356;2023-05-28T01:23:06;8.40;;;6.00;;
19907;SDS011;10116;53.112;7.356;2023-05-28T01:25:35;7.00;;;5.80;;
19907;SDS011;10116;53.112;7.356;2023-05-28T01:28:10;8.20;;;6.53;;
19907;SDS011;10116;53.112;7.356;2023-05-28T01:30:39;6.47;;;5.87;;
19907;SDS011;10116;53.112;7.356;2023-05-28T01:33:05;7.27;;;6.27;;
19907;SDS011;10116;53.112;7.356;2023-05-28T01:35:31;6.87;;;6.27;;
19907;SDS011;10116;53.112;7.356;2023-05-28T01:37:58;6.80;;;6.13;;
19907;SDS011;10116;53.112;7.356;2023-05-28T01:40:27;6.90;;;6.30;;
19907;SDS011;10116;53.112;7.356;2023-05-28T01:42:54;6.93;;;6.33;;
19907;SDS011;10116;53.112;7.356;2023-05-28T01:45:20;6.30;;;5.70;;
19907;SDS011;10116;53.112;7.356;2023-05-28T01:47:47;7.03;;;6.33;;
19907;SDS011;10116;53.112;7.356;2023-05-28T01:50:13;6.97;;;6.37;;
19907;SDS011;10116;53.112;7.356;2023-05-28T01:52:39;6.70;;;6.10;;
19907;SDS011;10116;53.112;7.356;2023-05-28T01:55:05;6.63;;;6.07;;
19907;SDS011;10116;53.112;7.356;2023-05-28T01:57:33;6.80;;;6.20;;
19907;SDS011;10116;53.112;7.356;2023-05-28T02:00:03;5.73;;;4.83;;
19907;SDS011;10116;53.112;7.356;2023-05-28T02:02:29;6.67;;;6.00;;
19907;SDS011;10116;53.112;7.356;2023-05-28T02:04:55;5.80;;;5.30;;
19907;SDS011;10116;53.112;7.356;2023-05-28T02:07:21;10.50;;;9.70;;
19907;SDS011;10116;53.112;7.356;2023-05-28T02:09:47;5.60;;;5.10;;
19907;SDS011;10116;53.112;7.356;2023-05-28T02:12:12;9.90;;;9.20;;
19907;SDS011;10116;53.112;7.356;2023-05-28T02:14:38;6.77;;;5.90;;
19907;SDS011;10116;53.112;7.356;2023-05-28T02:17:03;9.90;;;9.00;;
19907;SDS011;10116;53.112;7.356;2023-05-28T02:19:29;6.40;;;5.90;;
19907;SDS011;10116;53.112;7.356;2023-05-28T02:21:57;5.90;;;5.40;;
19907;SDS011;10116;53.112;7.356;2023-05-28T02:24:23;6.00;;;5.50;;
19907;SDS011;10116;53.112;7.356;2023-05-28T02:26:48;5.43;;;4.93;;
19907;SDS011;10116;53.112;7.356;2023-05-28T02:29:15;8.83;;;8.13;;
19907;SDS011;10116;53.112;7.356;2023-05-28T02:31:40;6.93;;;6.27;;
19907;SDS011;10116;53.112;7.356;2023-05-28T02:34:06;10.50;;;9.70;;
19907;SDS011;10116;53.112;7.356;2023-05-28T02:36:32;6.63;;;5.80;;
19907;SDS011;10116;53.112;7.356;2023-05-28T02:38:58;10.87;;;9.87;;
19907;SDS011;10116;53.112;7.356;2023-05-28T02:41:24;6.90;;;6.30;;
19907;SDS011;10116;53.112;7.356;2023-05-28T02:43:51;7.60;;;7.00;;
19907;SDS011;10116;53.112;7.356;2023-05-28T02:46:16;6.00;;;5.40;;
19907;SDS011;10116;53.112;7.356;2023-05-28T02:48:42;6.47;;;5.90;;
19907;SDS011;10116;53.112;7.356;2023-05-28T02:51:09;7.80;;;7.13;;
19907;SDS011;10116;53.112;7.356;2023-05-28T02:53:35;5.93;;;5.43;;
19907;SDS011;10116;53.112;7.356;2023-05-28T02:56:00;6.97;;;5.80;;
19907;SDS011;10116;53.112;7.356;2023-05-28T02:58:26;6.23;;;5.63;;
19907;SDS011;10116;53.112;7.356;2023-05-28T03:00:53;16.03;;;5.50;;
19907;SDS011;10116;53.112;7.356;2023-05-28T03:03:19;6.73;;;6.00;;
19907;SDS011;10116;53.112;7.356;2023-05-28T03:05:44;7.40;;;6.70;;
19907;SDS011;10116;53.112;7.356;2023-05-28T03:08:10;6.73;;;6.10;;
19907;SDS011;10116;53.112;7.356;2023-05-28T03:10:36;7.27;;;6.23;;
19907;SDS011;10116;53.112;7.356;2023-05-28T03:13:02;7.83;;;6.83;;
19907;SDS011;10116;53.112;7.356;2023-05-28T03:15:27;6.70;;;6.13;;
19907;SDS011;10116;53.112;7.356;2023-05-28T03:17:53;6.43;;;5.73;;
19907;SDS011;10116;53.112;7.356;2023-05-28T03:20:19;6.23;;;5.73;;
19907;SDS011;10116;53.112;7.356;2023-05-28T03:22:45;5.73;;;5.20;;
19907;SDS011;10116;53.112;7.356;2023-05-28T03:25:13;5.53;;;5.07;;
19907;SDS011;10116;53.112;7.356;2023-05-28T03:27:39;5.90;;;5.27;;
19907;SDS011;10116;53.112;7.356;2023-05-28T03:30:05;5.27;;;4.77;;
19907;SDS011;10116;53.112;7.356;2023-05-28T03:32:32;5.87;;;5.37;;
19907;SDS011;10116;53.112;7.356;2023-05-28T03:34:58;6.03;;;5.43;;
19907;SDS011;10116;53.112;7.356;2023-05-28T03:37:24;5.17;;;4.70;;
19907;SDS011;10116;53.112;7.356;2023-05-28T03:39:52;5.33;;;4.50;;
19907;SDS011;10116;53.112;7.356;2023-05-28T03:42:18;5.20;;;4.40;;
19907;SDS011;10116;53.112;7.356;2023-05-28T03:44:43;5.83;;;4.30;;
19907;SDS011;10116;53.112;7.356;2023-05-28T03:47:09;4.47;;;4.07;;
19907;SDS011;10116;53.112;7.356;2023-05-28T03:49:35;4.70;;;4.30;;
19907;SDS011;10116;53.112;7.356;2023-05-28T03:52:00;5.20;;;4.10;;
19907;SDS011;10116;53.112;7.356;2023-05-28T03:54:26;4.43;;;4.00;;
19907;SDS011;10116;53.112;7.356;2023-05-28T03:56:51;4.97;;;4.40;;
19907;SDS011;10116;53.112;7.356;2023-05-28T03:59:17;4.17;;;3.87;;
19907;SDS011;10116;53.112;7.356;2023-05-28T04:01:43;4.50;;;4.10;;
19907;SDS011;10116;53.112;7.356;2023-05-28T04:04:08;4.87;;;4.33;;
19907;SDS011;10116;53.112;7.356;2023-05-28T04:06:34;4.43;;;4.07;;
19907;SDS011;10116;53.112;7.356;2023-05-28T04:09:00;4.37;;;3.97;;
19907;SDS011;10116;53.112;7.356;2023-05-28T04:11:25;6.00;;;5.53;;
19907;SDS011;10116;53.112;7.356;2023-05-28T04:13:55;4.20;;;3.80;;
19907;SDS011;10116;53.112;7.356;2023-05-28T04:16:21;4.67;;;3.90;;
19907;SDS011;10116;53.112;7.356;2023-05-28T04:18:48;6.70;;;6.10;;
19907;SDS011;10116;53.112;7.356;2023-05-28T04:21:14;4.00;;;3.70;;
19907;SDS011;10116;53.112;7.356;2023-05-28T04:23:40;7.27;;;6.57;;
19907;SDS011;10116;53.112;7.356;2023-05-28T04:26:05;3.80;;;3.50;;
19907;SDS011;10116;53.112;7.356;2023-05-28T04:28:34;6.97;;;6.33;;
19907;SDS011;10116;53.112;7.356;2023-05-28T04:31:00;4.13;;;3.73;;
19907;SDS011;10116;53.112;7.356;2023-05-28T04:33:27;4.87;;;3.70;;
19907;SDS011;10116;53.112;7.356;2023-05-28T04:35:54;3.80;;;3.30;;
19907;SDS011;10116;53.112;7.356;2023-05-28T04:38:20;3.70;;;3.40;;
19907;SDS011;10116;53.112;7.356;2023-05-28T04:40:46;3.87;;;3.47;;
19907;SDS011;10116;53.112;7.356;2023-05-28T04:43:11;6.27;;;5.67;;
19907;SDS011;10116;53.112;7.356;2023-05-28T04:45:37;3.93;;;3.53;;
19907;SDS011;10116;53.112;7.356;2023-05-28T04:48:03;4.77;;;4.47;;
19907;SDS011;10116;53.112;7.356;2023-05-28T04:50:29;3.50;;;3.20;;
19907;SDS011;10116;53.112;7.356;2023-05-28T04:52:55;3.33;;;2.87;;
19907;SDS011;10116;53.112;7.356;2023-05-28T04:55:21;3.43;;;3.10;;
19907;SDS011;10116;53.112;7.356;2023-05-28T04:57:48;3.20;;;3.00;;
19907;SDS011;10116;53.112;7.356;2023-05-28T05:00:13;5.63;;;5.30;;
19907;SDS011;10116;53.112;7.356;2023-05-28T05:02:39;3.57;;;3.27;;
19907;SDS011;10116;53.112;7.356;2023-05-28T05:05:06;6.10;;;5.70;;
19907;SDS011;10116;53.112;7.356;2023-05-28T05:07:34;3.53;;;3.23;;
19907;SDS011;10116;53.112;7.356;2023-05-28T05:10:01;6.80;;;6.30;;
19907;SDS011;10116;53.112;7.356;2023-05-28T05:12:34;4.90;;;4.50;;
19907;SDS011;10116;53.112;7.356;2023-05-28T05:15:00;4.60;;;3.53;;
19907;SDS011;10116;53.112;7.356;2023-05-28T05:17:26;3.60;;;3.30;;
19907;SDS011;10116;53.112;7.356;2023-05-28T05:19:52;3.60;;;3.30;;
19907;SDS011;10116;53.112;7.356;2023-05-28T05:22:17;3.80;;;3.30;;
19907;SDS011;10116;53.112;7.356;2023-05-28T05:24:44;7.53;;;3.43;;
19907;SDS011;10116;53.112;7.356;2023-05-28T05:27:11;4.80;;;3.33;;
19907;SDS011;10116;53.112;7.356;2023-05-28T05:29:37;4.70;;;4.27;;
19907;SDS011;10116;53.112;7.356;2023-05-28T05:32:02;4.10;;;3.60;;
19907;SDS011;10116;53.112;7.356;2023-05-28T05:34:28;5.00;;;4.60;;
19907;SDS011;10116;53.112;7.356;2023-05-28T05:36:53;4.00;;;3.70;;
19907;SDS011;10116;53.112;7.356;2023-05-28T05:39:19;6.80;;;5.90;;
19907;SDS011;10116;53.112;7.356;2023-05-28T05:41:45;6.50;;;6.00;;
19907;SDS011;10116;53.112;7.356;2023-05-28T05:44:10;5.13;;;4.13;;
19907;SDS011;10116;53.112;7.356;2023-05-28T05:46:36;6.53;;;6.03;;
19907;SDS011;10116;53.112;7.356;2023-05-28T05:49:01;6.33;;;5.93;;
19907;SDS011;10116;53.112;7.356;2023-05-28T05:51:27;3.90;;;3.30;;
19907;SDS011;10116;53.112;7.356;2023-05-28T05:53:53;4.53;;;3.23;;
19907;SDS011;10116;53.112;7.356;2023-05-28T05:56:18;5.17;;;4.73;;
19907;SDS011;10116;53.112;7.356;2023-05-28T05:58:44;3.07;;;2.87;;
19907;SDS011;10116;53.112;7.356;2023-05-28T06:01:10;4.10;;;3.70;;
19907;SDS011;10116;53.112;7.356;2023-05-28T06:03:36;4.23;;;2.87;;
19907;SDS011;10116;53.112;7.356;2023-05-28T06:06:01;4.10;;;3.80;;
19907;SDS011;10116;53.112;7.356;2023-05-28T06:08:27;5.60;;;5.10;;
19907;SDS011;10116;53.112;7.356;2023-05-28T06:10:53;6.40;;;5.90;;
19907;SDS011;10116;53.112;7.356;2023-05-28T06:13:18;6.10;;;5.70;;
19907;SDS011;10116;53.112;7.356;2023-05-28T06:15:44;7.30;;;6.70;;
19907;SDS011;10116;53.112;7.356;2023-05-28T06:18:10;5.80;;;5.40;;
19907;SDS011;10116;53.112;7.356;2023-05-28T06:20:36;6.10;;;5.70;;
19907;SDS011;10116;53.112;7.356;2023-05-28T06:23:02;5.87;;;5.37;;
19907;SDS011;10116;53.112;7.356;2023-05-28T06:25:28;5.50;;;5.00;;
19907;SDS011;10116;53.112;7.356;2023-05-28T06:27:54;5.50;;;5.10;;
19907;SDS011;10116;53.112;7.356;2023-05-28T06:30:19;5.77;;;5.27;;
19907;SDS011;10116;53.112;7.356;2023-05-28T06:32:45;5.40;;;4.90;;
19907;SDS011;10116;53.112;7.356;2023-05-28T06:35:11;5.97;;;5.43;;
19907;SDS011;10116;53.112;7.356;2023-05-28T06:37:36;4.67;;;4.27;;
19907;SDS011;10116;53.112;7.356;2023-05-28T06:40:02;5.23;;;4.70;;
19907;SDS011;10116;53.112;7.356;2023-05-28T06:42:31;5.20;;;3.87;;
19907;SDS011;10116;53.112;7.356;2023-05-28T06:44:57;5.27;;;4.77;;
19907;SDS011;10116;53.112;7.356;2023-05-28T06:47:24;5.10;;;4.60;;
19907;SDS011;10116;53.112;7.356;2023-05-28T06:49:49;8.17;;;7.40;;
19907;SDS011;10116;53.112;7.356;2023-05-28T06:52:15;5.80;;;5.20;;
19907;SDS011;10116;53.112;7.356;2023-05-28T06:54:41;8.10;;;6.40;;
19907;SDS011;10116;53.112;7.356;2023-05-28T06:57:06;9.37;;;6.30;;
19907;SDS011;10116;53.112;7.356;2023-05-28T06:59:32;9.67;;;7.20;;
19907;SDS011;10116;53.112;7.356;2023-05-28T07:01:58;9.53;;;7.87;;
19907;SDS011;10116;53.112;7.356;2023-05-28T07:04:23;11.03;;;8.10;;
19907;SDS011;10116;53.112;7.356;2023-05-28T07:06:49;8.80;;;7.20;;
19907;SDS011;10116;53.112;7.356;2023-05-28T07:09:14;10.87;;;8.90;;
19907;SDS011;10116;53.112;7.356;2023-05-28T07:11:40;10.00;;;9.00;;
19907;SDS011;10116;53.112;7.356;2023-05-28T07:14:06;8.70;;;7.80;;
19907;SDS011;10116;53.112;7.356;2023-05-28T07:16:31;9.93;;;8.40;;
19907;SDS011;10116;53.112;7.356;2023-05-28T07:18:57;12.40;;;11.20;;
19907;SDS011;10116;53.112;7.356;2023-05-28T07:21:22;9.20;;;8.40;;
19907;SDS011;10116;53.112;7.356;2023-05-28T07:23:48;12.97;;;10.80;;
19907;SDS011;10116;53.112;7.356;2023-05-28T07:26:14;8.77;;;7.97;;
19907;SDS011;10116;53.112;7.356;2023-05-28T07:28:39;9.40;;;8.50;;
19907;SDS011;10116;53.112;7.356;2023-05-28T07:31:05;11.03;;;8.43;;
19907;SDS011;10116;53.112;7.356;2023-05-28T07:33:31;9.63;;;8.73;;
19907;SDS011;10116;53.112;7.356;2023-05-28T07:35:57;11.90;;;7.90;;
19907;SDS011;10116;53.112;7.356;2023-05-28T07:38:22;9.10;;;8.23;;
19907;SDS011;10116;53.112;7.356;2023-05-28T07:40:49;9.73;;;8.73;;
19907;SDS011;10116;53.112;7.356;2023-05-28T07:43:15;8.53;;;7.83;;
19907;SDS011;10116;53.112;7.356;2023-05-28T07:45:40;10.10;;;9.20;;
19907;SDS011;10116;53.112;7.356;2023-05-28T07:48:06;9.47;;;7.67;;
19907;SDS011;10116;53.112;7.356;2023-05-28T07:50:31;8.37;;;7.50;;
19907;SDS011;10116;53.112;7.356;2023-05-28T07:52:58;9.07;;;8.27;;
19907;SDS011;10116;53.112;7.356;2023-05-28T07:55:23;10.20;;;9.20;;
19907;SDS011;10116;53.112;7.356;2023-05-28T07:57:49;9.13;;;8.13;;
19907;SDS011;10116;53.112;7.356;2023-05-28T08:00:15;12.40;;;11.20;;
19907;SDS011;10116;53.112;7.356;2023-05-28T08:02:44;9.30;;;8.30;;
19907;SDS011;10116;53.112;7.356;2023-05-28T08:05:10;10.90;;;9.80;;
19907;SDS011;10116;53.112;7.356;2023-05-28T08:07:36;10.07;;;9.07;;
19907;SDS011;10116;53.112;7.356;2023-05-28T08:10:02;11.50;;;10.07;;
19907;SDS011;10116;53.112;7.356;2023-05-28T08:12:29;13.33;;;9.47;;
19907;SDS011;10116;53.112;7.356;2023-05-28T08:14:55;11.67;;;10.60;;
19907;SDS011;10116;53.112;7.356;2023-05-28T08:17:21;9.70;;;8.77;;
19907;SDS011;10116;53.112;7.356;2023-05-28T08:19:50;9.40;;;7.80;;
19907;SDS011;10116;53.112;7.356;2023-05-28T08:22:15;8.70;;;7.90;;
19907;SDS011;10116;53.112;7.356;2023-05-28T08:24:41;12.40;;;8.93;;
19907;SDS011;10116;53.112;7.356;2023-05-28T08:27:07;10.60;;;9.50;;
19907;SDS011;10116;53.112;7.356;2023-05-28T08:29:32;10.10;;;8.00;;
19907;SDS011;10116;53.112;7.356;2023-05-28T08:31:58;9.83;;;7.97;;
19907;SDS011;10116;53.112;7.356;2023-05-28T08:34:25;9.03;;;8.13;;
19907;SDS011;10116;53.112;7.356;2023-05-28T08:36:51;8.03;;;7.23;;
19907;SDS011;10116;53.112;7.356;2023-05-28T08:39:17;9.77;;;8.87;;
19907;SDS011;10116;53.112;7.356;2023-05-28T08:41:43;9.70;;;8.70;;
19907;SDS011;10116;53.112;7.356;2023-05-28T08:44:09;10.87;;;9.87;;
19907;SDS011;10116;53.112;7.356;2023-05-28T08:46:35;9.60;;;8.70;;
19907;SDS011;10116;53.112;7.356;2023-05-28T08:49:02;8.23;;;7.37;;
19907;SDS011;10116;53.112;7.356;2023-05-28T08:51:29;15.70;;;7.83;;
19907;SDS011;10116;53.112;7.356;2023-05-28T08:53:58;16.83;;;8.50;;
19907;SDS011;10116;53.112;7.356;2023-05-28T08:56:26;9.40;;;6.70;;
19907;SDS011;10116;53.112;7.356;2023-05-28T08:58:52;9.10;;;6.43;;
19907;SDS011;10116;53.112;7.356;2023-05-28T09:01:17;9.97;;;8.10;;
19907;SDS011;10116;53.112;7.356;2023-05-28T09:03:44;11.20;;;7.67;;
19907;SDS011;10116;53.112;7.356;2023-05-28T09:06:10;9.43;;;7.97;;
19907;SDS011;10116;53.112;7.356;2023-05-28T09:08:37;8.33;;;6.47;;
19907;SDS011;10116;53.112;7.356;2023-05-28T09:11:13;13.40;;;7.73;;
19907;SDS011;10116;53.112;7.356;2023-05-28T09:13:40;8.00;;;6.50;;
19907;SDS011;10116;53.112;7.356;2023-05-28T09:16:21;8.47;;;6.97;;
19907;SDS011;10116;53.112;7.356;2023-05-28T09:18:51;9.93;;;7.60;;
19907;SDS011;10116;53.112;7.356;2023-05-28T09:21:26;9.77;;;7.50;;
19907;SDS011;10116;53.112;7.356;2023-05-28T09:23:51;10.63;;;8.73;;
19907;SDS011;10116;53.112;7.356;2023-05-28T09:26:17;9.80;;;8.60;;
19907;SDS011;10116;53.112;7.356;2023-05-28T09:28:45;10.07;;;6.90;;
19907;SDS011;10116;53.112;7.356;2023-05-28T09:31:13;12.43;;;6.40;;
19907;SDS011;10116;53.112;7.356;2023-05-28T09:33:44;10.00;;;6.43;;
19907;SDS011;10116;53.112;7.356;2023-05-28T09:36:10;10.87;;;7.37;;
19907;SDS011;10116;53.112;7.356;2023-05-28T09:38:40;7.30;;;6.60;;
19907;SDS011;10116;53.112;7.356;2023-05-28T09:43:58;11.40;;;7.27;;
19907;SDS011;10116;53.112;7.356;2023-05-28T09:48:58;7.73;;;6.80;;
19907;SDS011;10116;53.112;7.356;2023-05-28T09:51:25;8.87;;;6.80;;
19907;SDS011;10116;53.112;7.356;2023-05-28T09:53:57;8.93;;;6.73;;
19907;SDS011;10116;53.112;7.356;2023-05-28T09:56:28;8.50;;;6.70;;
19907;SDS011;10116;53.112;7.356;2023-05-28T09:58:56;8.53;;;6.80;;
19907;SDS011;10116;53.112;7.356;2023-05-28T10:01:22;7.50;;;6.17;;
19907;SDS011;10116;53.112;7.356;2023-05-28T10:03:51;17.60;;;7.87;;
19907;SDS011;10116;53.112;7.356;2023-05-28T10:06:32;7.03;;;6.33;;
19907;SDS011;10116;53.112;7.356;2023-05-28T10:09:00;6.83;;;6.10;;
19907;SDS011;10116;53.112;7.356;2023-05-28T10:11:29;6.70;;;6.03;;
19907;SDS011;10116;53.112;7.356;2023-05-28T10:13:59;6.23;;;5.63;;
19907;SDS011;10116;53.112;7.356;2023-05-28T10:16:25;9.10;;;7.40;;
19907;SDS011;10116;53.112;7.356;2023-05-28T10:18:51;8.17;;;7.30;;
19907;SDS011;10116;53.112;7.356;2023-05-28T10:21:19;7.50;;;6.80;;
19907;SDS011;10116;53.112;7.356;2023-05-28T10:23:44;8.77;;;7.00;;
19907;SDS011;10116;53.112;7.356;2023-05-28T10:26:11;9.00;;;6.87;;
19907;SDS011;10116;53.112;7.356;2023-05-28T10:28:38;8.27;;;7.47;;
19907;SDS011;10116;53.112;7.356;2023-05-28T10:31:04;8.40;;;7.60;;
19907;SDS011;10116;53.112;7.356;2023-05-28T10:33:31;8.00;;;7.30;;
19907;SDS011;10116;53.112;7.356;2023-05-28T10:36:10;8.40;;;7.60;;
19907;SDS011;10116;53.112;7.356;2023-05-28T10:38:44;7.50;;;6.80;;
19907;SDS011;10116;53.112;7.356;2023-05-28T10:41:20;7.60;;;6.20;;
19907;SDS011;10116;53.112;7.356;2023-05-28T10:43:46;7.23;;;6.50;;
19907;SDS011;10116;53.112;7.356;2023-05-28T10:59:42;7.63;;;6.93;;
19907;SDS011;10116;53.112;7.356;2023-05-28T11:02:55;7.63;;;6.73;;
19907;SDS011;10116;53.112;7.356;2023-05-28T11:05:03;6.90;;;6.20;;
19907;SDS011;10116;53.112;7.356;2023-05-28T11:09:58;6.90;;;6.30;;
19907;SDS011;10116;53.112;7.356;2023-05-28T11:12:28;8.93;;;8.13;;
19907;SDS011;10116;53.112;7.356;2023-05-28T11:14:55;7.67;;;6.97;;
19907;SDS011;10116;53.112;7.356;2023-05-28T11:17:21;7.37;;;6.67;;
19907;SDS011;10116;53.112;7.356;2023-05-28T11:19:48;7.07;;;6.33;;
19907;SDS011;10116;53.112;7.356;2023-05-28T11:22:15;6.37;;;5.77;;
19907;SDS011;10116;53.112;7.356;2023-05-28T11:24:55;6.97;;;6.00;;
19907;SDS011;10116;53.112;7.356;2023-05-28T11:27:26;6.87;;;6.37;;
19907;SDS011;10116;53.112;7.356;2023-05-28T11:29:53;6.60;;;5.97;;
19907;SDS011;10116;53.112;7.356;2023-05-28T11:32:20;6.77;;;6.17;;
19907;SDS011;10116;53.112;7.356;2023-05-28T11:34:47;5.57;;;5.17;;
19907;SDS011;10116;53.112;7.356;2023-05-28T11:37:14;6.23;;;5.63;;
19907;SDS011;10116;53.112;7.356;2023-05-28T11:39:47;7.87;;;6.37;;
19907;SDS011;10116;53.112;7.356;2023-05-28T11:42:14;9.37;;;7.27;;
19907;SDS011;10116;53.112;7.356;2023-05-28T11:44:44;6.50;;;5.90;;
19907;SDS011;10116;53.112;7.356;2023-05-28T11:47:10;8.60;;;7.87;;
19907;SDS011;10116;53.112;7.356;2023-05-28T11:49:37;6.10;;;5.70;;
19907;SDS011;10116;53.112;7.356;2023-05-28T11:52:02;5.63;;;5.13;;
19907;SDS011;10116;53.112;7.356;2023-05-28T11:54:28;8.70;;;4.90;;
19907;SDS011;10116;53.112;7.356;2023-05-28T11:56:54;5.40;;;4.90;;
19907;SDS011;10116;53.112;7.356;2023-05-28T11:59:23;5.30;;;4.90;;
19907;SDS011;10116;53.112;7.356;2023-05-28T12:01:50;7.20;;;6.50;;
19907;SDS011;10116;53.112;7.356;2023-05-28T12:04:21;6.10;;;5.50;;
19907;SDS011;10116;53.112;7.356;2023-05-28T12:06:51;5.10;;;4.70;;
19907;SDS011;10116;53.112;7.356;2023-05-28T12:09:18;5.00;;;4.60;;
19907;SDS011;10116;53.112;7.356;2023-05-28T12:11:44;6.40;;;5.90;;
19907;SDS011;10116;53.112;7.356;2023-05-28T12:14:26;4.73;;;4.23;;
19907;SDS011;10116;53.112;7.356;2023-05-28T12:16:51;5.03;;;4.30;;
19907;SDS011;10116;53.112;7.356;2023-05-28T12:19:18;5.03;;;4.53;;
19907;SDS011;10116;53.112;7.356;2023-05-28T12:21:43;5.07;;;4.67;;
19907;SDS011;10116;53.112;7.356;2023-05-28T12:24:13;5.17;;;4.67;;
19907;SDS011;10116;53.112;7.356;2023-05-28T12:26:41;6.30;;;5.80;;
19907;SDS011;10116;53.112;7.356;2023-05-28T12:29:07;5.77;;;5.27;;
19907;SDS011;10116;53.112;7.356;2023-05-28T12:31:32;5.03;;;4.53;;
19907;SDS011;10116;53.112;7.356;2023-05-28T12:33:58;6.73;;;6.00;;
19907;SDS011;10116;53.112;7.356;2023-05-28T12:36:24;5.10;;;4.47;;
19907;SDS011;10116;53.112;7.356;2023-05-28T12:38:50;7.30;;;6.77;;
19907;SDS011;10116;53.112;7.356;2023-05-28T12:41:15;4.83;;;4.40;;
19907;SDS011;10116;53.112;7.356;2023-05-28T12:43:41;4.90;;;3.80;;
19907;SDS011;10116;53.112;7.356;2023-05-28T12:46:07;4.10;;;3.53;;
19907;SDS011;10116;53.112;7.356;2023-05-28T12:48:33;4.10;;;3.80;;
19907;SDS011;10116;53.112;7.356;2023-05-28T12:50:59;4.80;;;4.50;;
19907;SDS011;10116;53.112;7.356;2023-05-28T12:53:24;3.90;;;3.33;;
19907;SDS011;10116;53.112;7.356;2023-05-28T12:55:50;6.57;;;6.00;;
19907;SDS011;10116;53.112;7.356;2023-05-28T12:58:16;7.07;;;6.57;;
19907;SDS011;10116;53.112;7.356;2023-05-28T13:00:42;7.83;;;6.13;;
19907;SDS011;10116;53.112;7.356;2023-05-28T13:03:07;6.90;;;5.87;;
19907;SDS011;10116;53.112;7.356;2023-05-28T13:05:33;7.33;;;6.83;;
19907;SDS011;10116;53.112;7.356;2023-05-28T13:07:59;4.67;;;4.10;;
19907;SDS011;10116;53.112;7.356;2023-05-28T13:10:26;5.17;;;3.80;;
19907;SDS011;10116;53.112;7.356;2023-05-28T13:12:52;3.90;;;3.57;;
19907;SDS011;10116;53.112;7.356;2023-05-28T13:15:17;5.37;;;4.80;;
19907;SDS011;10116;53.112;7.356;2023-05-28T13:17:43;3.17;;;2.87;;
19907;SDS011;10116;53.112;7.356;2023-05-28T13:20:09;3.40;;;3.10;;
19907;SDS011;10116;53.112;7.356;2023-05-28T13:22:38;2.83;;;2.70;;
19907;SDS011;10116;53.112;7.356;2023-05-28T13:25:05;2.77;;;2.30;;
19907;SDS011;10116;53.112;7.356;2023-05-28T13:27:32;4.70;;;4.43;;
19907;SDS011;10116;53.112;7.356;2023-05-28T13:29:59;5.33;;;4.93;;
19907;SDS011;10116;53.112;7.356;2023-05-28T13:32:26;3.97;;;2.90;;
19907;SDS011;10116;53.112;7.356;2023-05-28T13:34:52;3.77;;;2.80;;
19907;SDS011;10116;53.112;7.356;2023-05-28T13:37:17;3.27;;;2.97;;
19907;SDS011;10116;53.112;7.356;2023-05-28T13:39:43;6.10;;;5.50;;
19907;SDS011;10116;53.112;7.356;2023-05-28T13:42:09;5.30;;;5.00;;
19907;SDS011;10116;53.112;7.356;2023-05-28T13:44:35;3.03;;;2.87;;
19907;SDS011;10116;53.112;7.356;2023-05-28T13:47:00;5.10;;;4.60;;
19907;SDS011;10116;53.112;7.356;2023-05-28T13:49:27;6.57;;;5.53;;
19907;SDS011;10116;53.112;7.356;2023-05-28T13:51:53;5.73;;;5.20;;
19907;SDS011;10116;53.112;7.356;2023-05-28T13:54:19;5.57;;;5.13;;
19907;SDS011;10116;53.112;7.356;2023-05-28T13:56:44;6.27;;;5.67;;
19907;SDS011;10116;53.112;7.356;2023-05-28T13:59:10;6.00;;;5.37;;
19907;SDS011;10116;53.112;7.356;2023-05-28T14:01:36;5.03;;;4.70;;
19907;SDS011;10116;53.112;7.356;2023-05-28T14:04:01;3.27;;;3.07;;
19907;SDS011;10116;53.112;7.356;2023-05-28T14:06:27;8.17;;;5.73;;
19907;SDS011;10116;53.112;7.356;2023-05-28T14:08:53;6.37;;;3.20;;
19907;SDS011;10116;53.112;7.356;2023-05-28T14:11:18;3.13;;;2.83;;
19907;SDS011;10116;53.112;7.356;2023-05-28T14:13:44;3.33;;;2.93;;
19907;SDS011;10116;53.112;7.356;2023-05-28T14:16:10;3.43;;;3.13;;
19907;SDS011;10116;53.112;7.356;2023-05-28T14:18:35;5.53;;;5.13;;
19907;SDS011;10116;53.112;7.356;2023-05-28T14:21:01;5.10;;;4.77;;
19907;SDS011;10116;53.112;7.356;2023-05-28T14:23:27;5.23;;;4.83;;
19907;SDS011;10116;53.112;7.356;2023-05-28T14:25:53;5.53;;;5.03;;
19907;SDS011;10116;53.112;7.356;2023-05-28T14:28:18;6.63;;;4.83;;
19907;SDS011;10116;53.112;7.356;2023-05-28T14:30:45;5.23;;;4.60;;
19907;SDS011;10116;53.112;7.356;2023-05-28T14:33:10;4.03;;;2.90;;
19907;SDS011;10116;53.112;7.356;2023-05-28T14:35:37;7.50;;;7.00;;
19907;SDS011;10116;53.112;7.356;2023-05-28T14:38:02;3.87;;;3.30;;
19907;SDS011;10116;53.112;7.356;2023-05-28T14:40:28;6.00;;;5.50;;
19907;SDS011;10116;53.112;7.356;2023-05-28T14:42:54;3.03;;;2.73;;
19907;SDS011;10116;53.112;7.356;2023-05-28T14:45:19;7.73;;;3.53;;
19907;SDS011;10116;53.112;7.356;2023-05-28T14:47:45;5.83;;;5.23;;
19907;SDS011;10116;53.112;7.356;2023-05-28T14:50:10;5.17;;;4.70;;
19907;SDS011;10116;53.112;7.356;2023-05-28T14:52:36;4.47;;;3.70;;
19907;SDS011;10116;53.112;7.356;2023-05-28T14:55:02;4.63;;;4.20;;
19907;SDS011;10116;53.112;7.356;2023-05-28T14:57:28;4.90;;;4.03;;
19907;SDS011;10116;53.112;7.356;2023-05-28T14:59:58;3.30;;;3.00;;
19907;SDS011;10116;53.112;7.356;2023-05-28T15:02:25;4.77;;;3.10;;